createdAt,value
2018-07-11T00:01:24.074Z,21.11
2018-07-11T00:03:54.996Z,21.05
2018-07-11T00:06:26.164Z,21.07
2018-07-11T00:08:56.008Z,21.00
2018-07-11T00:11:25.868Z,21.05
2018-07-11T00:13:55.777Z,21.01
2018-07-11T00:16:25.723Z,21.00
2018-07-11T00:18:55.548Z,20.92
2018-07-11T00:21:25.560Z,20.91
2018-07-11T00:23:55.524Z,20.89
2018-07-11T00:26:25.471Z,20.94
2018-07-11T00:28:55.423Z,20.97
2018-07-11T00:31:25.444Z,20.92
2018-07-11T00:33:55.388Z,20.92
2018-07-11T00:36:25.335Z,20.79
2018-07-11T00:38:55.327Z,20.73
2018-07-11T00:41:25.347Z,20.71
2018-07-11T00:43:55.392Z,20.77
2018-07-11T00:46:25.388Z,20.78
2018-07-11T00:48:55.477Z,20.79
2018-07-11T00:51:25.462Z,20.73
2018-07-11T00:53:55.504Z,20.80
2018-07-11T00:56:25.524Z,20.78
2018-07-11T00:59:10.646Z,20.74
2018-07-11T01:01:42.489Z,20.78
2018-07-11T01:04:12.541Z,20.74
2018-07-11T01:06:42.520Z,20.73
2018-07-11T01:09:12.488Z,20.77
2018-07-11T01:11:42.504Z,20.79
2018-07-11T01:14:12.533Z,20.79
2018-07-11T01:16:42.436Z,20.74
2018-07-11T01:19:12.662Z,20.71
2018-07-11T01:21:42.520Z,20.75
2018-07-11T01:24:12.359Z,20.79
2018-07-11T01:26:42.219Z,20.76
2018-07-11T01:29:12.083Z,20.80
2018-07-11T01:31:41.987Z,20.74
2018-07-11T01:34:11.913Z,20.74
2018-07-11T01:36:41.804Z,20.72
2018-07-11T01:39:11.740Z,20.67
2018-07-11T01:41:41.672Z,20.64
2018-07-11T01:44:11.612Z,20.58
2018-07-11T01:46:45.585Z,20.63
2018-07-11T01:49:15.642Z,20.57
2018-07-11T01:51:56.775Z,20.63
2018-07-11T01:54:27.561Z,20.58
2018-07-11T01:56:57.548Z,20.56
2018-07-11T01:59:32.986Z,20.55
2018-07-11T02:02:03.498Z,20.54
2018-07-11T02:04:35.373Z,20.61
2018-07-11T02:07:05.392Z,20.59
2018-07-11T02:09:35.416Z,20.60
2018-07-11T02:12:06.307Z,20.63
2018-07-11T02:14:37.176Z,20.63
2018-07-11T02:17:07.164Z,20.65
2018-07-11T02:19:37.445Z,20.69
2018-07-11T02:22:07.536Z,20.69
2018-07-11T02:24:37.551Z,20.75
2018-07-11T02:27:07.854Z,20.75
2018-07-11T02:29:37.844Z,20.62
2018-07-11T02:32:07.900Z,20.71
2018-07-11T02:34:37.856Z,20.67
2018-07-11T02:37:07.820Z,20.68
2018-07-11T02:39:37.681Z,20.62
2018-07-11T02:42:07.551Z,20.56
2018-07-11T02:44:37.453Z,20.55
2018-07-11T02:47:12.424Z,20.55
2018-07-11T02:49:42.684Z,20.57
2018-07-11T02:52:12.624Z,20.58
2018-07-11T02:54:42.623Z,20.51
2018-07-11T02:57:12.567Z,20.33
2018-07-11T02:59:42.600Z,20.47
2018-07-11T03:02:12.519Z,20.41
2018-07-11T03:04:42.608Z,20.20
2018-07-11T03:07:12.596Z,20.20
2018-07-11T03:09:42.522Z,20.21
2018-07-11T03:12:12.381Z,20.16
2018-07-11T03:14:45.732Z,20.19
2018-07-11T03:17:15.639Z,20.18
2018-07-11T03:19:45.592Z,20.25
2018-07-11T03:22:15.792Z,20.31
2018-07-11T03:24:45.683Z,20.28
2018-07-11T03:27:15.594Z,20.43
2018-07-11T03:29:45.528Z,20.42
2018-07-11T03:32:15.638Z,20.45
2018-07-11T03:34:45.533Z,20.45
2018-07-11T03:37:15.392Z,20.56
2018-07-11T03:39:45.328Z,20.70
2018-07-11T03:42:15.240Z,20.73
2018-07-11T03:44:45.113Z,20.74
2018-07-11T03:47:14.992Z,20.89
2018-07-11T03:49:44.893Z,21.08
2018-07-11T03:52:14.788Z,21.24
2018-07-11T03:54:44.632Z,21.40
2018-07-11T03:57:14.512Z,21.51
2018-07-11T03:59:44.308Z,21.63
2018-07-11T04:02:14.158Z,21.71
2018-07-11T04:04:44.023Z,21.86
2018-07-11T04:07:13.896Z,21.97
2018-07-11T04:09:43.812Z,22.23
2018-07-11T04:12:13.666Z,22.25
2018-07-11T04:14:43.543Z,22.30
2018-07-11T04:17:13.364Z,22.54
2018-07-11T04:19:43.208Z,22.50
2018-07-11T04:22:13.070Z,22.65
2018-07-11T04:24:43.049Z,22.62
2018-07-11T04:27:12.900Z,22.89
2018-07-11T04:29:42.840Z,23.10
2018-07-11T04:32:12.708Z,23.37
2018-07-11T04:34:42.686Z,23.66
2018-07-11T04:37:12.744Z,23.86
2018-07-11T04:39:42.716Z,24.13
2018-07-11T04:42:12.608Z,24.22
2018-07-11T04:44:42.521Z,24.11
2018-07-11T04:47:12.643Z,24.21
2018-07-11T04:49:42.652Z,24.23
2018-07-11T04:52:12.689Z,24.35
2018-07-11T04:54:42.701Z,24.26
2018-07-11T04:57:12.661Z,24.68
2018-07-11T04:59:42.553Z,24.59
2018-07-11T05:02:12.452Z,24.46
2018-07-11T05:04:42.428Z,24.64
2018-07-11T05:07:12.334Z,24.88
2018-07-11T05:09:42.171Z,25.09
2018-07-11T05:12:12.005Z,25.15
2018-07-11T05:14:41.861Z,25.29
2018-07-11T05:17:11.775Z,25.31
2018-07-11T05:19:41.654Z,25.26
2018-07-11T05:22:11.491Z,25.10
2018-07-11T05:24:41.432Z,25.31
2018-07-11T05:27:11.412Z,25.59
2018-07-11T05:29:41.308Z,25.65
2018-07-11T05:32:11.305Z,25.83
2018-07-11T05:34:41.181Z,26.01
2018-07-11T05:37:11.059Z,26.13
2018-07-11T05:39:41.074Z,26.33
2018-07-11T05:42:11.057Z,26.25
2018-07-11T05:44:40.928Z,26.25
2018-07-11T05:47:10.855Z,26.62
2018-07-11T05:49:40.803Z,26.73
2018-07-11T05:52:10.764Z,26.72
2018-07-11T06:03:25.200Z,27.36
2018-07-11T06:05:55.064Z,27.35
2018-07-11T06:08:24.952Z,27.33
2018-07-11T06:10:54.898Z,27.34
2018-07-11T06:13:24.915Z,27.46
2018-07-11T06:15:54.784Z,27.26
2018-07-11T06:18:25.682Z,27.43
2018-07-11T06:20:55.593Z,27.84
2018-07-11T06:23:25.428Z,27.78
2018-07-11T06:25:55.352Z,27.59
2018-07-11T06:28:25.222Z,27.40
2018-07-11T06:30:55.103Z,27.59
2018-07-11T06:33:25.094Z,27.77
2018-07-11T06:35:54.942Z,27.82
2018-07-11T06:38:24.775Z,27.76
2018-07-11T06:40:54.896Z,27.91
2018-07-11T06:43:24.858Z,27.97
2018-07-11T06:45:54.772Z,28.08
2018-07-11T06:48:24.825Z,28.25
2018-07-11T06:50:54.714Z,28.34
2018-07-11T06:53:24.625Z,28.49
2018-07-11T06:55:54.544Z,28.80
2018-07-11T06:58:24.480Z,28.52
2018-07-11T07:00:54.444Z,28.64
2018-07-11T07:03:24.295Z,28.86
2018-07-11T07:05:54.369Z,29.00
2018-07-11T07:08:24.249Z,28.84
2018-07-11T07:10:54.132Z,28.32
2018-07-11T07:13:24.761Z,28.63
2018-07-11T07:15:58.033Z,28.57
2018-07-11T07:18:27.891Z,28.72
2018-07-11T07:24:39.879Z,28.76
2018-07-11T07:27:09.954Z,28.62
2018-07-11T07:29:40.777Z,28.64
2018-07-11T07:32:10.716Z,28.93
2018-07-11T07:34:40.659Z,28.93
2018-07-11T07:37:10.588Z,28.71
2018-07-11T07:39:40.508Z,28.76
2018-07-11T07:42:10.407Z,29.02
2018-07-11T07:44:40.513Z,29.12
2018-07-11T07:47:47.055Z,29.01
2018-07-11T07:50:17.674Z,29.10
2018-07-11T07:52:47.693Z,28.93
2018-07-11T07:55:17.777Z,28.75
2018-07-11T07:57:47.876Z,28.85
2018-07-11T08:00:17.885Z,28.98
2018-07-11T08:02:47.917Z,28.95
2018-07-11T08:05:17.873Z,29.12
2018-07-11T08:07:47.860Z,29.19
2018-07-11T08:10:17.827Z,29.09
2018-07-11T08:12:47.775Z,29.11
2018-07-11T08:15:17.744Z,29.08
2018-07-11T08:17:47.648Z,29.18
2018-07-11T08:20:17.658Z,29.22
2018-07-11T08:23:25.120Z,29.14
2018-07-11T08:26:06.716Z,29.06
2018-07-11T08:29:48.467Z,29.17
2018-07-11T08:33:34.184Z,29.26
2018-07-11T08:38:16.817Z,29.33
2018-07-11T08:42:59.703Z,29.43
2018-07-11T08:45:43.232Z,29.35
2018-07-11T08:48:24.122Z,29.37
2018-07-11T08:53:11.804Z,29.52
2018-07-11T08:57:59.341Z,29.78
2018-07-11T09:01:08.336Z,29.75
2018-07-11T09:03:51.956Z,29.86
2018-07-11T09:06:36.764Z,30.03
2018-07-11T09:11:17.312Z,30.15
2018-07-11T09:18:04.398Z,29.90
2018-07-11T09:20:52.661Z,30.01
2018-07-11T09:23:35.204Z,30.19
2018-07-11T09:26:05.421Z,30.25
2018-07-11T09:28:35.439Z,30.40
2018-07-11T09:31:05.418Z,30.41
2018-07-11T09:33:35.404Z,30.43
2018-07-11T09:36:05.524Z,30.54
2018-07-11T09:38:35.426Z,30.66
2018-07-11T09:41:05.318Z,30.51
2018-07-11T09:43:35.265Z,30.53
2018-07-11T09:46:05.280Z,30.08
2018-07-11T09:48:35.283Z,30.60
2018-07-11T09:51:06.048Z,30.47
2018-07-11T09:53:36.415Z,30.66
2018-07-11T09:56:06.541Z,30.67
2018-07-11T09:58:36.509Z,30.80
2018-07-11T10:01:11.512Z,30.72
2018-07-11T10:03:41.625Z,30.90
2018-07-11T10:06:11.712Z,30.98
2018-07-11T10:08:41.713Z,30.98
2018-07-11T10:11:12.124Z,31.06
2018-07-11T10:13:42.043Z,31.19
2018-07-11T10:16:12.008Z,31.27
2018-07-11T10:18:47.371Z,31.13
2018-07-11T10:21:17.420Z,31.26
2018-07-11T10:23:47.440Z,31.27
2018-07-11T10:26:17.380Z,31.45
2018-07-11T10:28:47.224Z,31.26
2018-07-11T10:31:17.217Z,31.34
2018-07-11T10:33:47.101Z,31.30
2018-07-11T10:36:17.028Z,31.35
2018-07-11T10:38:47.027Z,31.32
2018-07-11T10:41:17.331Z,31.41
2018-07-11T10:43:47.459Z,31.65
2018-07-11T10:46:17.952Z,31.61
2018-07-11T10:48:47.820Z,31.68
2018-07-11T10:51:17.715Z,31.57
2018-07-11T10:53:47.713Z,31.72
2018-07-11T10:56:17.790Z,31.80
2018-07-11T10:58:47.725Z,31.60
2018-07-11T11:01:18.957Z,31.70
2018-07-11T11:03:48.874Z,31.89
2018-07-11T11:06:19.483Z,31.92
2018-07-11T11:08:49.387Z,31.97
2018-07-11T11:11:19.384Z,31.76
2018-07-11T11:13:49.346Z,31.82
2018-07-11T11:16:19.356Z,31.94
2018-07-11T11:18:49.268Z,31.93
2018-07-11T11:21:19.236Z,32.01
2018-07-11T11:23:49.700Z,32.04
2018-07-11T11:26:19.621Z,31.94
2018-07-11T11:28:49.668Z,31.98
2018-07-11T11:31:19.610Z,32.11
2018-07-11T11:33:49.495Z,32.24
2018-07-11T11:36:19.526Z,32.10
2018-07-11T11:38:49.461Z,32.07
2018-07-11T11:41:19.579Z,32.10
2018-07-11T11:43:49.508Z,31.51
2018-07-11T11:46:19.425Z,32.24
2018-07-11T11:48:49.464Z,32.28
2018-07-11T11:51:19.392Z,32.11
2018-07-11T11:53:49.428Z,32.22
2018-07-11T11:56:19.312Z,32.29
2018-07-11T11:58:49.196Z,32.33
2018-07-11T12:01:19.100Z,32.40
2018-07-11T12:03:49.029Z,32.48
2018-07-11T12:06:18.932Z,32.49
2018-07-11T12:08:48.926Z,32.58
2018-07-11T12:11:18.862Z,32.55
2018-07-11T12:13:48.712Z,32.52
2018-07-11T12:16:18.569Z,32.62
2018-07-11T12:18:48.513Z,32.74
2018-07-11T12:21:18.489Z,32.64
2018-07-11T12:23:48.638Z,32.62
2018-07-11T12:26:18.885Z,32.68
2018-07-11T12:28:48.904Z,32.53
2018-07-11T12:31:18.799Z,32.62
2018-07-11T12:33:48.802Z,32.71
2018-07-11T12:36:18.884Z,32.67
2018-07-11T12:38:53.372Z,32.76
2018-07-11T12:41:23.437Z,32.89
2018-07-11T12:43:53.439Z,32.90
2018-07-11T12:46:23.449Z,32.90
2018-07-11T12:48:58.588Z,32.75
2018-07-11T12:51:28.681Z,32.91
2018-07-11T12:53:58.676Z,32.80
2018-07-11T12:56:29.280Z,32.97
2018-07-11T12:58:59.599Z,32.87
2018-07-11T13:01:29.852Z,32.84
2018-07-11T13:04:00.232Z,32.71
2018-07-11T13:06:30.614Z,32.62
2018-07-11T13:09:00.667Z,32.69
2018-07-11T13:11:30.693Z,32.85
2018-07-11T13:14:00.685Z,32.72
2018-07-11T13:16:30.712Z,32.78
2018-07-11T13:19:00.641Z,32.80
2018-07-11T13:21:30.682Z,32.74
2018-07-11T13:24:00.694Z,32.86
2018-07-11T13:26:30.691Z,33.05
2018-07-11T13:29:00.647Z,33.12
2018-07-11T13:31:30.681Z,33.01
2018-07-11T13:34:00.697Z,32.99
2018-07-11T13:36:30.572Z,32.97
2018-07-11T13:39:00.440Z,32.85
2018-07-11T13:41:30.324Z,32.95
2018-07-11T13:44:00.299Z,33.00
2018-07-11T13:46:30.168Z,33.09
2018-07-11T13:49:00.118Z,33.21
2018-07-11T13:51:30.017Z,33.21
2018-07-11T13:53:59.957Z,33.20
2018-07-11T13:56:29.909Z,33.28
2018-07-11T13:59:00.035Z,33.30
2018-07-11T14:01:30.141Z,33.22
2018-07-11T14:04:00.276Z,33.15
2018-07-11T14:06:30.272Z,33.12
2018-07-11T14:09:01.189Z,33.10
2018-07-11T14:11:31.221Z,33.02
2018-07-11T14:14:01.324Z,32.82
2018-07-11T14:16:31.304Z,32.86
2018-07-11T14:19:01.262Z,32.92
2018-07-11T14:21:31.152Z,32.91
2018-07-11T14:24:01.183Z,33.00
2018-07-11T14:26:31.230Z,33.00
2018-07-11T14:29:03.336Z,33.00
2018-07-11T14:31:34.748Z,32.95
2018-07-11T14:34:06.226Z,32.91
2018-07-11T14:36:36.487Z,32.87
2018-07-11T14:39:07.725Z,32.81
2018-07-11T14:41:37.709Z,32.92
2018-07-11T14:44:07.712Z,32.98
2018-07-11T14:46:37.588Z,33.02
2018-07-11T14:49:07.548Z,33.03
2018-07-11T14:51:37.694Z,32.75
2018-07-11T14:54:07.553Z,32.74
2018-07-11T14:56:37.716Z,32.85
2018-07-11T14:59:07.758Z,32.87
2018-07-11T15:01:37.840Z,32.86
2018-07-11T15:04:07.731Z,32.81
2018-07-11T15:06:37.617Z,32.79
2018-07-11T15:09:07.930Z,32.81
2018-07-11T15:11:37.632Z,32.73
2018-07-11T15:14:07.652Z,32.70
2018-07-11T15:16:37.638Z,32.70
2018-07-11T15:19:07.549Z,32.63
2018-07-11T15:21:37.538Z,32.66
2018-07-11T15:24:07.509Z,32.59
2018-07-11T15:26:37.579Z,32.61
2018-07-11T15:29:07.536Z,32.60
2018-07-11T15:31:37.801Z,32.59
2018-07-11T15:34:08.113Z,32.49
2018-07-11T15:36:38.074Z,32.48
2018-07-11T15:39:08.088Z,32.46
2018-07-11T15:41:38.605Z,32.38
2018-07-11T15:44:08.616Z,32.26
2018-07-11T15:46:38.628Z,32.25
2018-07-11T15:49:08.648Z,32.25
2018-07-11T15:51:38.640Z,32.20
2018-07-11T15:54:08.661Z,32.11
2018-07-11T15:56:39.481Z,32.06
2018-07-11T15:59:10.821Z,32.04
2018-07-11T16:01:49.420Z,31.93
2018-07-11T16:04:55.084Z,31.88
2018-07-11T16:07:27.996Z,31.82
2018-07-11T16:09:59.326Z,31.79
2018-07-11T16:12:29.207Z,31.75
2018-07-11T16:14:59.036Z,31.76
2018-07-11T16:17:28.956Z,31.71
2018-07-11T16:19:58.841Z,31.72
2018-07-11T16:22:28.871Z,31.68
2018-07-11T16:24:58.824Z,31.65
2018-07-11T16:27:28.756Z,31.59
2018-07-11T16:29:58.620Z,31.47
2018-07-11T16:32:28.489Z,31.42
2018-07-11T16:34:58.387Z,31.37
2018-07-11T16:37:28.308Z,31.32
2018-07-11T16:39:58.176Z,31.30
2018-07-11T16:42:28.056Z,31.24
2018-07-11T16:44:58.024Z,31.18
2018-07-11T16:47:28.784Z,31.12
2018-07-11T16:49:58.796Z,30.45
2018-07-11T16:52:29.257Z,31.00
2018-07-11T16:54:59.273Z,30.93
2018-07-11T16:57:39.225Z,30.83
2018-07-11T17:00:09.847Z,30.66
2018-07-11T17:02:44.133Z,30.64
2018-07-11T17:05:21.920Z,30.51
2018-07-11T17:07:53.402Z,30.40
2018-07-11T17:10:23.521Z,30.29
2018-07-11T17:13:00.201Z,30.25
2018-07-11T17:15:32.816Z,30.22
2018-07-11T17:18:03.028Z,30.11
2018-07-11T17:20:32.979Z,30.09
2018-07-11T17:23:09.028Z,29.53
2018-07-11T17:25:42.129Z,30.02
2018-07-11T17:28:12.553Z,29.95
2018-07-11T17:30:44.006Z,29.92
2018-07-11T17:33:14.586Z,29.85
2018-07-11T17:35:55.663Z,29.78
2018-07-11T17:38:27.664Z,29.71
2018-07-11T17:40:58.364Z,29.66
2018-07-11T17:43:37.400Z,29.57
2018-07-11T17:46:07.923Z,29.48
2018-07-11T17:49:11.961Z,29.40
2018-07-11T17:51:55.808Z,29.27
2018-07-11T17:54:29.944Z,29.15
2018-07-11T17:57:00.121Z,29.07
2018-07-11T17:59:45.759Z,28.93
2018-07-11T18:04:22.056Z,28.85
2018-07-11T18:07:01.152Z,28.65
2018-07-11T18:09:56.680Z,28.54
2018-07-11T18:12:29.088Z,28.41
2018-07-11T18:15:20.228Z,28.34
2018-07-11T18:18:01.996Z,28.16
2018-07-11T18:20:40.489Z,28.07
2018-07-11T18:24:25.620Z,28.00
2018-07-11T18:29:09.413Z,27.89
2018-07-11T18:32:18.846Z,27.75
2018-07-11T18:34:57.442Z,27.71
2018-07-11T18:37:42.132Z,27.66
2018-07-11T18:40:29.499Z,27.58
2018-07-11T18:45:11.060Z,27.51
2018-07-11T18:47:50.720Z,27.42
2018-07-11T18:50:26.968Z,27.36
2018-07-11T18:53:02.317Z,27.28
2018-07-11T18:55:40.109Z,26.71
2018-07-11T18:58:26.572Z,27.17
2018-07-11T19:01:08.007Z,27.13
2018-07-11T19:03:45.436Z,27.06
2018-07-11T19:06:38.336Z,27.00
2018-07-11T19:09:13.340Z,26.96
2018-07-11T19:11:53.613Z,26.84
2018-07-11T19:14:32.689Z,26.78
2018-07-11T19:18:14.820Z,26.69
2018-07-11T19:20:55.584Z,26.58
2018-07-11T19:23:29.618Z,26.58
2018-07-11T19:26:26.098Z,26.50
2018-07-11T19:31:18.628Z,26.44
2018-07-11T19:36:14.241Z,26.34
2018-07-11T19:38:58.181Z,26.26
2018-07-11T19:41:38.052Z,26.24
2018-07-11T19:44:23.492Z,26.20
2018-07-11T19:47:01.696Z,26.17
2018-07-11T19:49:41.252Z,26.13
2018-07-11T19:54:22.378Z,26.10
2018-07-11T19:56:52.487Z,26.00
2018-07-11T19:59:22.412Z,26.01
2018-07-11T20:01:52.313Z,25.95
2018-07-11T20:04:22.316Z,25.95
2018-07-11T20:06:52.385Z,25.94
2018-07-11T20:09:22.553Z,25.91
2018-07-11T20:11:52.460Z,25.89
2018-07-11T20:14:22.384Z,25.86
2018-07-11T20:16:52.484Z,25.85
2018-07-11T20:19:22.324Z,25.84
2018-07-11T20:21:52.505Z,25.84
2018-07-11T20:24:22.531Z,25.82
2018-07-11T20:26:52.615Z,25.15
2018-07-11T20:29:22.964Z,25.74
2018-07-11T20:31:52.915Z,25.72
2018-07-11T20:34:22.920Z,25.71
2018-07-11T20:36:52.905Z,25.66
2018-07-11T20:39:22.829Z,25.64
2018-07-11T20:41:52.787Z,25.64
2018-07-11T20:44:23.426Z,25.57
2018-07-11T20:46:53.440Z,25.52
2018-07-11T20:49:28.804Z,25.48
2018-07-11T20:51:58.652Z,25.46
2018-07-11T20:54:28.460Z,25.43
2018-07-11T20:56:58.448Z,25.38
2018-07-11T20:59:39.209Z,25.32
2018-07-11T21:02:19.807Z,25.26
2018-07-11T21:06:33.228Z,25.24
2018-07-11T21:11:13.620Z,25.18
2018-07-11T21:16:09.480Z,25.14
2018-07-11T21:18:54.444Z,25.01
2018-07-11T21:21:24.279Z,25.00
2018-07-11T21:23:54.089Z,25.00
2018-07-11T21:26:23.953Z,24.97
2018-07-11T21:28:53.760Z,24.99
2018-07-11T21:31:23.583Z,24.90
2018-07-11T21:33:53.444Z,24.81
2018-07-11T21:36:23.392Z,24.82
2018-07-11T21:38:53.676Z,24.85
2018-07-11T21:41:23.580Z,24.85
2018-07-11T21:43:53.477Z,24.84
2018-07-11T21:46:23.300Z,24.84
2018-07-11T21:48:53.182Z,24.82
2018-07-11T21:51:22.976Z,24.76
2018-07-11T21:53:52.866Z,24.80
2018-07-11T21:56:22.723Z,24.78
2018-07-11T21:58:52.666Z,24.75
2018-07-11T22:01:22.501Z,24.77
2018-07-11T22:03:52.420Z,24.75
2018-07-11T22:06:22.240Z,24.74
2018-07-11T22:08:52.125Z,24.76
2018-07-11T22:11:22.029Z,24.67
2018-07-11T22:13:52.008Z,24.69
2018-07-11T22:16:21.813Z,24.63
2018-07-11T22:18:51.668Z,24.53
2018-07-11T22:21:20.082Z,24.43
2018-07-11T22:23:48.137Z,24.45
2018-07-11T22:26:16.232Z,24.47
2018-07-11T22:28:44.332Z,24.47
2018-07-11T22:31:12.430Z,24.46
2018-07-11T22:33:40.500Z,24.44
2018-07-11T22:36:08.679Z,24.44
2018-07-11T22:38:36.721Z,24.41
2018-07-11T22:41:04.820Z,24.31
2018-07-11T22:43:32.912Z,24.34
2018-07-11T22:46:01.068Z,24.33
2018-07-11T22:48:29.119Z,24.37
2018-07-11T22:50:57.180Z,24.20
2018-07-11T22:53:25.323Z,24.25
2018-07-11T22:55:53.402Z,24.26
2018-07-11T22:58:21.463Z,24.23
2018-07-11T23:00:49.560Z,24.25
2018-07-11T23:03:17.688Z,24.26
2018-07-11T23:05:45.755Z,24.25
2018-07-11T23:08:13.863Z,24.23
2018-07-11T23:10:41.989Z,24.22
2018-07-11T23:13:10.124Z,24.27
2018-07-11T23:15:38.221Z,24.25
2018-07-11T23:18:06.332Z,24.28
2018-07-11T23:20:34.451Z,24.25
2018-07-11T23:23:02.508Z,24.26
2018-07-11T23:25:30.622Z,24.27
2018-07-11T23:27:58.750Z,24.24
2018-07-11T23:30:26.853Z,24.22
2018-07-11T23:32:54.925Z,24.16
2018-07-11T23:35:23.039Z,24.11
2018-07-11T23:37:51.140Z,24.09
2018-07-11T23:40:19.276Z,24.07
2018-07-11T23:42:47.373Z,24.02
2018-07-11T23:45:15.444Z,23.95
2018-07-11T23:47:43.545Z,23.94
2018-07-11T23:50:11.664Z,23.89
2018-07-11T23:52:39.772Z,23.85
2018-07-11T23:55:07.837Z,23.81
2018-07-11T23:57:35.941Z,23.76
